Time;durP1;ratioP1;P1;durP2;ratioP2;P2;SDS_P1;SDS_P2;PMS_P1;PMS_P2;Temp;Humidity;BMP_temperature;BMP_pressure;BME280_temperature;BME280_humidity;BME280_pressure;Samples;Min_cycle;Max_cycle;Signal;HPM_P1;HPM_P2
2023/06/21 06:31:00;;;;;;;14.02;4.18;;;;;;;18.50;38.69;99680.25;6195970;23;20069;-86
2023/06/21 06:37:42;;;;;;;11.48;3.70;;;;;;;18.74;36.30;99744.94;6189480;23;20375;-87
2023/06/21 06:40:34;;;;;;;12.02;3.70;;;;;;;18.71;35.59;99756.75;6191519;23;20021;-88
2023/06/21 06:43:00;;;;;;;16.17;3.92;;;;;;;18.37;35.21;99698.09;6181355;23;20020;-89
2023/06/21 06:52:55;;;;;;;17.80;3.40;;;;;;;18.57;35.34;99726.69;6101635;23;20032;-83
2023/06/21 06:59:36;;;;;;;49.05;5.28;;;;;;;18.66;33.96;99770.84;6100143;23;20159;-87
2023/06/21 07:04:06;;;;;;;;;;;;;;;;;;;;;
2023/06/21 07:46:16;;;;;;;21.77;3.10;;;;;;;19.17;30.40;99779.25;6174208;23;20064;-93
2023/06/21 08:06:30;;;;;;;9.82;2.90;;;;;;;18.93;31.13;99700.72;6132690;23;20044;-88
2023/06/21 09:10:02;;;;;;;;;;;;;;;20.60;30.17;99765.69;6184242;23;20123;-86
2023/06/21 09:35:32;;;;;;;9.45;2.92;;;;;;;20.85;30.10;99754.97;6176925;23;20032;-89
2023/06/21 09:38:41;;;;;;;8.40;3.35;;;;;;;20.51;29.21;99760.34;6141327;23;20029;-88
2023/06/21 09:41:10;;;;;;;14.68;3.22;;;;;;;20.41;30.14;99714.53;6165179;23;20077;-88
2023/06/21 09:47:02;;;;;;;21.27;3.75;;;;;;;20.63;29.24;99721.28;6163369;23;20018;-86
2023/06/21 09:52:32;;;;;;;20.70;3.40;;;;;;;20.94;29.13;99722.19;6169524;23;20089;-88
2023/06/21 09:55:01;;;;;;;13.82;3.65;;;;;;;20.96;29.11;99692.06;6165026;23;20016;-87
2023/06/21 09:57:30;;;;;;;5.68;2.85;;;;;;;21.09;29.30;99690.66;6142225;23;20001;-88
2023/06/21 10:00:07;;;;;;;11.02;3.00;;;;;;;21.14;28.27;99689.53;6162219;23;20032;-92
2023/06/21 10:06:07;;;;;;;9.68;3.30;;;;;;;21.26;28.08;99736.59;6153323;23;20109;-84
2023/06/21 10:08:59;;;;;;;7.20;2.83;;;;;;;21.51;28.10;99744.50;6187316;23;20127;-84
2023/06/21 10:11:30;;;;;;;25.95;3.42;;;;;;;21.50;29.07;99742.91;6191066;23;20477;-88
2023/06/21 10:14:00;;;;;;;12.95;3.50;;;;;;;21.79;28.43;99746.88;6173528;23;20044;-87
2023/06/21 10:16:30;;;;;;;10.45;3.17;;;;;;;21.88;30.13;99738.22;6163624;23;20025;-85
2023/06/21 10:19:00;;;;;;;9.30;3.05;;;;;;;21.82;29.15;99732.22;6198672;23;20020;-85
2023/06/21 10:21:28;;;;;;;10.52;3.72;;;;;;;21.72;26.87;99716.16;6186648;23;20398;-83
2023/06/21 10:23:58;;;;;;;12.63;3.40;;;;;;;21.95;27.78;99732.72;6165411;23;20021;-83
2023/06/21 10:26:27;;;;;;;17.65;3.22;;;;;;;21.77;26.85;99715.81;6142123;23;20406;-85
2023/06/21 10:28:57;;;;;;;7.47;2.92;;;;;;;21.65;27.09;99711.28;6190159;23;20096;-84
2023/06/21 10:31:27;;;;;;;19.58;3.78;;;;;;;21.58;26.92;99758.50;6186647;23;20043;-84
2023/06/21 10:33:55;;;;;;;22.40;3.47;;;;;;;21.23;27.98;99730.97;6196968;23;20069;-84
2023/06/21 10:36:30;;;;;;;10.35;2.72;;;;;;;21.21;27.83;99734.09;6137074;23;20040;-84
2023/06/21 10:39:03;;;;;;;4.30;2.70;;;;;;;21.30;27.73;99728.28;6189387;23;20023;-85
2023/06/21 10:41:31;;;;;;;5.28;2.83;;;;;;;21.51;28.18;99733.38;6187399;23;20049;-83
2023/06/21 10:43:59;;;;;;;9.45;2.90;;;;;;;21.66;28.03;99728.81;6192882;23;20025;-89
2023/06/21 10:46:26;;;;;;;7.32;2.80;;;;;;;21.83;27.91;99711.53;6142191;23;20027;-87
2023/06/21 10:48:56;;;;;;;6.82;2.75;;;;;;;22.33;27.33;99741.94;6189104;23;20031;-88
2023/06/21 10:51:23;;;;;;;10.50;3.10;;;;;;;22.22;27.04;99706.44;6143223;23;20040;-86
2023/06/21 10:53:57;;;;;;;8.95;3.35;;;;;;;22.28;27.18;99716.06;6173649;23;20100;-87
2023/06/21 10:56:31;;;;;;;8.45;3.08;;;;;;;22.45;25.93;99739.69;6186771;23;20027;-86
2023/06/21 10:58:58;;;;;;;5.07;2.85;;;;;;;22.35;26.75;99734.81;6158099;23;20013;-88
2023/06/21 11:01:24;;;;;;;4.85;2.90;;;;;;;22.55;28.17;99731.81;6168572;23;20017;-87
2023/06/21 11:04:12;;;;;;;13.60;3.60;;;;;;;22.34;26.31;99705.34;6057919;23;20023;-89
2023/06/21 11:07:06;;;;;;;6.90;3.33;;;;;;;22.61;25.81;99742.22;6075408;23;20042;-91
2023/06/21 11:10:03;;;;;;;16.40;3.35;;;;;;;22.89;27.16;99738.88;5994850;24;20016;-87
2023/06/21 11:12:29;;;;;;;6.03;3.10;;;;;;;22.94;25.55;99738.56;5984168;24;20024;-87
2023/06/21 11:14:57;;;;;;;29.83;3.75;;;;;;;22.88;24.63;99744.84;5981799;24;20672;-86
2023/06/21 11:17:28;;;;;;;11.23;3.10;;;;;;;22.69;25.16;99732.75;5983903;24;20027;-88
2023/06/21 11:20:25;;;;;;;21.85;3.50;;;;;;;22.31;25.17;99660.75;5961217;24;20054;-87
2023/06/21 11:23:21;;;;;;;9.27;3.13;;;;;;;22.92;26.54;99748.47;5931479;24;20107;-92
2023/06/21 11:25:53;;;;;;;13.57;3.35;;;;;;;22.88;25.52;99744.84;5907115;24;20058;-84
2023/06/21 11:28:19;;;;;;;13.40;2.95;;;;;;;22.90;28.75;99756.41;5930443;24;20115;-83
2023/06/21 11:31:07;;;;;;;10.27;3.47;;;;;;;23.02;25.73;99731.06;5903489;24;20032;-85
2023/06/21 11:33:51;;;;;;;10.00;3.15;;;;;;;23.30;27.32;99746.38;5925696;24;20025;-84
2023/06/21 11:36:25;;;;;;;12.70;3.40;;;;;;;23.52;28.41;99747.34;5923019;24;20021;-83
2023/06/21 11:39:10;;;;;;;11.15;3.22;;;;;;;23.41;26.36;99747.25;5877444;24;20028;-81
2023/06/21 11:41:48;;;;;;;11.15;3.08;;;;;;;22.79;25.69;99741.59;6042702;23;20021;-81
2023/06/21 11:44:27;;;;;;;10.32;3.70;;;;;;;22.44;25.82;99731.72;6090689;23;20029;-84
2023/06/21 11:47:16;;;;;;;24.52;3.97;;;;;;;22.61;25.98;99747.00;6042041;23;20018;-84
2023/06/21 11:50:09;;;;;;;19.08;3.50;;;;;;;22.63;25.82;99748.22;6051774;23;20023;-83
2023/06/21 11:53:32;;;;;;;11.35;3.45;;;;;;;22.73;26.38;99747.50;6081340;23;20026;-90
2023/06/21 11:56:13;;;;;;;16.63;3.38;;;;;;;22.66;26.01;99741.88;6109424;23;20054;-84
2023/06/21 11:58:39;;;;;;;23.65;3.83;;;;;;;22.36;25.83;99742.00;6076533;23;20061;-83
2023/06/21 12:01:07;;;;;;;9.02;3.03;;;;;;;22.05;26.26;99718.13;6134572;23;20022;-84
2023/06/21 12:03:33;;;;;;;18.77;3.72;;;;;;;22.05;27.46;99738.44;6159462;23;20017;-84
2023/06/21 12:06:03;;;;;;;35.60;4.18;;;;;;;21.86;26.45;99723.91;6132980;23;20023;-83
2023/06/21 12:08:31;;;;;;;24.48;4.38;;;;;;;22.36;27.08;99739.19;6160165;23;20027;-85
2023/06/21 12:11:20;;;;;;;16.15;3.85;;;;;;;22.89;26.36;99732.53;6158305;23;20072;-83
2023/06/21 12:13:49;;;;;;;21.85;4.38;;;;;;;23.24;26.48;99723.63;6117257;23;20091;-85
2023/06/21 12:16:25;;;;;;;15.07;3.95;;;;;;;23.70;26.45;99728.69;6136847;23;20021;-83
2023/06/21 12:18:52;;;;;;;10.75;3.40;;;;;;;23.88;27.76;99706.47;6191926;23;20024;-83
2023/06/21 12:21:39;;;;;;;7.70;3.28;;;;;;;23.98;24.66;99705.69;6194512;23;20475;-86
2023/06/21 12:24:06;;;;;;;21.42;3.85;;;;;;;23.72;25.38;99725.53;6205872;23;20076;-82
2023/06/21 12:30:09;;;;;;;11.65;3.10;;;;;;;23.30;26.66;99701.75;6083650;23;20014;-85
2023/06/21 12:36:31;;;;;;;10.23;3.60;;;;;;;23.81;25.35;99706.44;6086052;23;20074;-86
2023/06/21 12:39:05;;;;;;;14.35;3.83;;;;;;;24.24;25.12;99693.38;6061400;23;20010;-89
2023/06/21 12:42:22;;;;;;;24.08;3.90;;;;;;;24.38;23.91;99720.56;6086016;23;20007;-88
2023/06/21 12:44:56;;;;;;;9.60;3.92;;;;;;;24.49;24.61;99701.03;6087426;23;20055;-86
2023/06/21 12:47:23;;;;;;;11.98;3.70;;;;;;;24.79;24.46;99686.66;6080012;23;20025;-88
2023/06/21 12:50:01;;;;;;;;;;;;;;;25.11;24.45;99725.78;6081307;23;20074;-87
2023/06/21 12:52:29;;;;;;;16.48;3.67;;;;;;;25.09;23.00;99717.78;6074781;23;19929;-87
2023/06/21 12:54:58;;;;;;;13.07;3.55;;;;;;;24.70;22.88;99692.66;6053223;23;20029;-88
2023/06/21 12:57:44;;;;;;;19.67;4.13;;;;;;;23.98;23.29;99710.47;6075685;23;20048;-89
2023/06/21 13:00:35;;;;;;;8.30;3.83;;;;;;;23.87;24.92;99696.47;5983652;24;20045;-89
2023/06/21 13:03:02;;;;;;;14.68;3.70;;;;;;;24.00;24.16;99680.94;5983574;24;20415;-89
2023/06/21 13:05:32;;;;;;;13.80;4.07;;;;;;;23.92;23.53;99654.19;5976810;23;20116;-89
2023/06/21 13:08:00;;;;;;;10.82;3.50;;;;;;;24.20;23.55;99669.41;6058515;23;20021;-90
2023/06/21 13:10:27;;;;;;;24.67;4.38;;;;;;;24.68;23.12;99688.66;6187691;23;20072;-90
2023/06/21 13:12:59;;;;;;;6.88;3.10;;;;;;;24.57;22.58;99677.47;6191351;23;20016;-90
2023/06/21 13:15:43;;;;;;;6.43;3.47;;;;;;;24.46;23.54;99710.19;6159908;23;20028;-88
2023/06/21 13:18:14;;;;;;;10.85;3.78;;;;;;;24.34;25.13;99672.25;6161521;23;20358;-90
2023/06/21 13:20:40;;;;;;;17.98;3.63;;;;;;;24.54;22.92;99676.28;6191761;23;20021;-89
2023/06/21 13:23:06;;;;;;;18.88;3.92;;;;;;;24.68;23.67;99674.69;6187315;23;20068;-91
2023/06/21 13:29:14;;;;;;;9.90;4.10;;;;;;;24.41;24.14;99702.22;6135655;23;20160;-86
2023/06/21 13:36:05;;;;;;;25.27;3.45;;;;;;;23.18;25.73;99664.63;6165198;23;20076;-87
2023/06/21 13:39:07;;;;;;;9.32;3.90;;;;;;;23.82;26.31;99719.19;6141022;23;20028;-92
2023/06/21 13:42:23;;;;;;;14.38;4.10;;;;;;;24.35;24.62;99719.34;6167252;23;20022;-89
2023/06/21 13:44:51;;;;;;;12.20;3.80;;;;;;;24.49;23.99;99696.22;6132640;23;20021;-90
2023/06/21 13:47:21;;;;;;;10.85;3.47;;;;;;;24.53;24.22;99688.63;6134312;23;20044;-90
2023/06/21 13:59:34;;;;;;;27.83;4.32;;;;;;;24.65;23.80;99662.28;6157662;23;20427;-85
2023/06/21 14:05:22;;;;;;;16.50;3.60;;;;;;;24.34;23.29;99652.69;6100968;23;20181;-88
2023/06/21 14:07:50;;;;;;;11.38;3.65;;;;;;;24.50;24.12;99703.44;6097516;23;20051;-86
2023/06/21 14:10:16;;;;;;;17.08;4.10;;;;;;;24.33;25.44;99677.00;6075328;23;20377;-89
2023/06/21 14:15:38;;;;;;;10.23;4.32;;;;;;;24.46;25.16;99715.78;6194732;22;20471;-89
2023/06/21 14:18:39;;;;;;;14.65;3.67;;;;;;;24.24;24.81;99712.94;6138394;23;20076;-88
2023/06/21 14:21:08;;;;;;;7.93;3.20;;;;;;;23.41;25.64;99644.00;6162296;23;20017;-87
2023/06/21 14:23:37;;;;;;;9.00;3.38;;;;;;;23.62;26.54;99719.47;6159752;22;21421;-86
2023/06/21 14:29:07;;;;;;;10.48;3.78;;;;;;;23.32;25.61;99647.19;6193336;23;20033;-88
2023/06/21 14:31:40;;;;;;;13.40;3.42;;;;;;;23.95;24.63;99714.06;6164830;23;20017;-88
2023/06/21 14:34:06;;;;;;;13.40;3.78;;;;;;;24.02;24.74;99683.34;6114570;23;20112;-86
2023/06/21 14:48:01;;;;;;;12.82;3.40;;;;;;;24.20;23.84;99725.28;6206994;23;20017;-86
2023/06/21 14:50:29;;;;;;;10.93;3.90;;;;;;;24.10;24.05;99690.53;6176236;23;20077;-95
2023/06/21 14:52:55;;;;;;;22.38;4.22;;;;;;;24.50;23.88;99692.25;6226476;23;20016;-87
2023/06/21 15:08:56;;;;;;;9.13;3.85;;;;;;;24.39;23.38;99652.28;6204062;22;20033;-86
2023/06/21 15:18:19;;;;;;;7.57;3.40;;;;;;;24.38;24.83;99723.34;6203947;23;20029;-90
2023/06/21 15:20:50;;;;;;;7.65;3.38;;;;;;;24.43;25.28;99733.34;6173659;23;20359;-87
2023/06/21 15:34:30;;;;;;;7.20;3.20;;;;;;;23.90;24.67;99721.59;6168600;23;20028;-86
2023/06/21 15:36:58;;;;;;;12.90;3.88;;;;;;;23.89;24.74;99724.78;6160485;23;20089;-86
2023/06/21 15:39:24;;;;;;;7.45;3.30;;;;;;;23.81;24.72;99731.56;6135131;23;20045;-90
2023/06/21 15:44:48;;;;;;;6.13;3.55;;;;;;;23.92;25.04;99729.59;6170000;23;20029;-88
2023/06/21 15:47:14;;;;;;;10.77;3.38;;;;;;;23.63;25.09;99707.09;6184853;23;20051;-90
2023/06/21 16:03:20;;;;;;;14.70;4.03;;;;;;;23.59;25.21;99695.13;6162232;23;20060;-89
2023/06/21 16:23:29;;;;;;;4.38;3.30;;;;;;;23.17;26.08;99743.91;6168853;23;20085;-88
2023/06/21 16:38:38;;;;;;;6.80;3.50;;;;;;;22.05;26.61;99751.53;6150848;23;20071;-86
2023/06/21 16:46:02;;;;;;;6.20;3.70;;;;;;;21.49;27.70;99697.59;6173588;23;20065;-86
2023/06/21 16:52:49;;;;;;;17.30;4.18;;;;;;;21.21;27.88;99674.91;6084477;23;20070;-85
2023/06/21 16:55:15;;;;;;;14.30;4.38;;;;;;;21.38;28.53;99710.53;6082348;23;20113;-84
2023/06/21 16:57:42;;;;;;;9.38;5.07;;;;;;;21.40;27.61;99718.53;6055660;23;20030;-85
2023/06/21 17:04:26;;;;;;;27.00;4.32;;;;;;;21.02;28.44;99670.28;6089231;23;20029;-91
2023/06/21 17:11:12;;;;;;;11.70;4.30;;;;;;;21.34;28.27;99756.94;6083745;23;20030;-85
2023/06/21 17:39:25;;;;;;;6.75;3.28;;;;;;;20.86;28.31;99734.34;6144547;23;20040;-85
2023/06/21 17:42:00;;;;;;;8.10;3.38;;;;;;;20.90;28.28;99749.13;6098943;23;20017;-85
2023/06/21 17:58:05;;;;;;;8.43;2.92;;;;;;;20.36;28.91;99678.75;6174382;23;20047;-85
2023/06/21 18:04:50;;;;;;;12.57;3.17;;;;;;;20.83;28.96;99751.78;6144841;23;20108;-87
2023/06/21 18:07:17;;;;;;;11.25;3.53;;;;;;;20.69;29.23;99724.53;6146070;23;20025;-82
2023/06/21 18:21:17;;;;;;;10.40;3.50;;;;;;;20.21;31.16;99757.38;6247496;23;20074;-84
2023/06/21 18:23:45;;;;;;;8.00;3.72;;;;;;;19.80;32.24;99715.34;6181784;23;20040;-84
2023/06/21 18:26:33;;;;;;;15.13;4.38;;;;;;;19.84;33.31;99757.84;6187353;23;20089;-84
2023/06/21 18:33:00;;;;;;;187.77;13.55;;;;;;;19.52;35.33;99768.19;6233304;23;20020;-82
2023/06/21 18:35:28;;;;;;;176.70;10.48;;;;;;;18.99;36.11;99707.59;6201914;23;20028;-88
2023/06/21 18:38:44;;;;;;;81.75;7.75;;;;;;;19.21;36.15;99769.06;6235656;23;20075;-85
2023/06/21 18:42:01;;;;;;;52.38;6.88;;;;;;;19.04;36.64;99774.97;6202044;23;20098;-84
2023/06/21 18:44:27;;;;;;;30.95;8.65;;;;;;;18.52;37.42;99726.97;6217681;23;20051;-88
2023/06/21 18:47:06;;;;;;;25.02;8.88;;;;;;;18.51;37.40;99737.25;6249655;23;20083;-86
2023/06/21 19:14:15;;;;;;;15.35;6.70;;;;;;;18.19;37.85;99788.97;6169987;23;20537;-87
2023/06/21 19:22:44;;;;;;;20.95;6.43;;;;;;;18.07;38.21;99783.47;6194311;23;20471;-86
2023/06/21 19:38:24;;;;;;;;;;;;;;;17.87;38.06;99776.97;6216194;23;20032;-85
2023/06/21 20:31:00;;;;;;;63.28;9.82;;;;;;;16.92;43.29;99790.19;6171742;23;20052;-90
2023/06/21 20:33:27;;;;;;;35.88;8.98;;;;;;;16.63;43.89;99755.25;6170122;23;20016;-89
2023/06/21 20:35:54;;;;;;;38.15;9.48;;;;;;;16.72;44.43;99778.06;6146371;23;20362;-89
2023/06/21 20:38:20;;;;;;;44.90;10.93;;;;;;;16.77;44.79;99783.38;6123137;23;20021;-90
2023/06/21 20:40:47;;;;;;;67.68;13.55;;;;;;;16.57;44.12;99760.19;6137692;23;20025;-91
2023/06/21 20:43:14;;;;;;;44.83;13.00;;;;;;;16.64;44.02;99777.00;6191051;23;20075;-89
2023/06/21 20:45:41;;;;;;;31.90;11.52;;;;;;;16.67;44.54;99781.03;6141530;23;20295;-92
2023/06/21 20:48:08;;;;;;;45.88;11.48;;;;;;;16.59;43.79;99779.19;6140647;23;20366;-90
2023/06/21 20:50:35;;;;;;;37.20;10.77;;;;;;;16.63;44.05;99789.19;6090176;23;20075;-87
2023/06/21 20:53:03;;;;;;;24.42;10.20;;;;;;;16.69;44.81;99809.09;6118282;23;20025;-87
2023/06/21 20:55:50;;;;;;;25.77;10.32;;;;;;;16.52;45.13;99774.19;6172328;23;20085;-88
2023/06/21 20:58:24;;;;;;;22.20;9.38;;;;;;;16.45;45.12;99779.47;6192887;23;20025;-90
2023/06/21 21:00:51;;;;;;;33.17;9.23;;;;;;;16.45;44.57;99785.78;6164529;23;20111;-87
2023/06/21 21:03:17;;;;;;;29.25;8.27;;;;;;;16.31;43.95;99762.44;6164190;23;20021;-87
2023/06/21 21:05:48;;;;;;;29.10;9.40;;;;;;;16.31;44.47;99767.94;6135821;23;20017;-87
2023/06/21 21:08:15;;;;;;;42.67;9.13;;;;;;;16.53;45.62;99806.19;6192446;23;20027;-93
2023/06/21 21:10:43;;;;;;;25.17;8.82;;;;;;;16.14;45.27;99755.13;6140213;23;20115;-88
2023/06/21 21:13:09;;;;;;;31.97;9.23;;;;;;;16.32;45.56;99786.91;6138238;23;20017;-91
2023/06/21 21:15:36;;;;;;;36.90;9.70;;;;;;;16.25;47.10;99797.69;6168335;23;20040;-90
2023/06/21 21:18:04;;;;;;;23.42;10.02;;;;;;;16.18;48.41;99801.00;6167903;23;20344;-91
2023/06/21 21:20:30;;;;;;;32.42;9.70;;;;;;;15.95;48.45;99785.94;6169695;23;20032;-91
2023/06/21 21:22:56;;;;;;;45.70;9.52;;;;;;;15.89;48.53;99790.06;6140941;23;20017;-89
2023/06/21 21:25:22;;;;;;;30.10;9.60;;;;;;;15.91;48.36;99804.31;6191467;23;20085;-90
2023/06/21 21:27:49;;;;;;;35.83;10.75;;;;;;;16.07;47.87;99830.16;6113299;23;20064;-90
2023/06/21 21:30:16;;;;;;;38.65;10.43;;;;;;;16.00;47.44;99818.84;6111200;23;20017;-94
2023/06/21 21:33:06;;;;;;;28.83;9.02;;;;;;;16.14;47.31;99833.16;6158941;23;20543;-88
2023/06/21 21:35:33;;;;;;;28.77;9.50;;;;;;;15.98;46.55;99802.63;6136165;23;20013;-89
2023/06/21 21:37:59;;;;;;;27.73;9.32;;;;;;;15.98;46.58;99794.34;6133091;23;20036;-89
2023/06/21 21:40:25;;;;;;;29.92;10.25;;;;;;;16.05;48.05;99802.09;6131560;23;20518;-89
2023/06/21 21:42:52;;;;;;;40.30;9.38;;;;;;;16.07;47.74;99805.31;6130642;23;20021;-87
2023/06/21 21:45:20;;;;;;;57.63;10.93;;;;;;;15.95;48.08;99791.47;6156026;23;20043;-88
2023/06/21 21:48:04;;;;;;;53.20;10.50;;;;;;;16.15;48.58;99839.47;6159331;23;20311;-89
2023/06/21 21:50:30;;;;;;;49.40;10.77;;;;;;;15.69;49.25;99775.97;6157189;23;20017;-88
2023/06/21 21:52:56;;;;;;;33.85;10.32;;;;;;;16.02;49.52;99830.34;6157429;23;20139;-91
2023/06/21 21:55:25;;;;;;;43.17;11.05;;;;;;;15.73;49.81;99800.91;6157239;23;20026;-88
2023/06/21 21:57:52;;;;;;;47.33;10.32;;;;;;;15.91;50.24;99840.16;6109803;23;20017;-88
2023/06/21 22:00:22;;;;;;;48.00;10.48;;;;;;;15.85;49.78;99838.75;6157395;23;20021;-87
2023/06/21 22:02:48;;;;;;;33.50;9.85;;;;;;;15.56;49.31;99793.50;6157133;23;20052;-87
2023/06/21 22:05:17;;;;;;;38.17;9.88;;;;;;;15.78;48.88;99835.72;6158749;23;20022;-89
2023/06/21 22:07:43;;;;;;;29.67;9.05;;;;;;;15.65;48.73;99826.53;6160303;23;20099;-90
2023/06/21 22:10:29;;;;;;;38.40;9.93;;;;;;;15.40;50.01;99803.53;6140515;23;20364;-91
2023/06/21 22:13:09;;;;;;;21.73;8.93;;;;;;;15.30;49.65;99788.19;6162067;23;20022;-91
2023/06/21 22:15:51;;;;;;;24.92;8.85;;;;;;;15.46;49.38;99826.97;6162263;23;20014;-89
2023/06/21 22:18:29;;;;;;;23.42;8.20;;;;;;;15.46;48.93;99824.19;6162923;23;20092;-88
2023/06/21 22:20:57;;;;;;;26.40;8.65;;;;;;;15.54;48.81;99831.63;6143139;23;20052;-93
2023/06/21 22:23:44;;;;;;;26.27;7.78;;;;;;;15.55;48.55;99838.75;6146610;23;20016;-90
2023/06/21 22:26:17;;;;;;;23.42;7.40;;;;;;;15.38;48.17;99803.03;6166084;23;20017;-90
2023/06/21 22:28:44;;;;;;;24.48;7.63;;;;;;;15.39;48.83;99808.19;6162391;23;20021;-90
2023/06/21 22:31:10;;;;;;;19.05;7.85;;;;;;;15.38;48.87;99805.78;6110713;23;20033;-94
2023/06/21 22:33:36;;;;;;;24.77;7.53;;;;;;;15.55;49.70;99838.75;6108511;23;20429;-89
2023/06/21 22:36:02;;;;;;;27.30;7.45;;;;;;;15.47;49.56;99826.63;6160436;23;20029;-91
2023/06/21 22:38:45;;;;;;;22.87;7.83;;;;;;;15.30;48.96;99801.13;6108879;23;20435;-88
2023/06/21 22:41:56;;;;;;;20.40;7.85;;;;;;;15.45;48.71;99830.88;6135883;23;20049;-91
2023/06/21 22:44:22;;;;;;;27.40;7.15;;;;;;;15.30;48.38;99820.41;6161818;23;20100;-90
2023/06/21 22:46:48;;;;;;;17.20;7.17;;;;;;;15.17;49.71;99809.31;6134709;23;20017;-90
2023/06/21 22:49:14;;;;;;;20.92;7.40;;;;;;;15.12;50.01;99803.16;6160695;23;20044;-90
2023/06/21 22:51:40;;;;;;;26.67;8.47;;;;;;;15.28;49.94;99831.75;6132780;23;20017;-92
2023/06/21 22:54:08;;;;;;;21.67;7.53;;;;;;;15.22;50.11;99828.38;6161109;23;20411;-89
2023/06/21 22:56:36;;;;;;;20.60;7.88;;;;;;;15.24;49.73;99826.13;6086745;23;20013;-93
2023/06/21 22:59:02;;;;;;;;;;;;;;;15.24;49.99;99828.88;6134073;23;20014;-95
2023/06/21 23:01:28;;;;;;;27.73;8.85;;;;;;;15.21;49.50;99823.22;6087583;23;19917;-88
2023/06/21 23:03:54;;;;;;;31.17;8.97;;;;;;;15.22;50.32;99827.56;6110052;23;20053;-94
2023/06/21 23:06:21;;;;;;;36.83;9.20;;;;;;;15.22;49.97;99841.34;6160330;23;20024;-90
2023/06/21 23:08:50;;;;;;;35.60;9.18;;;;;;;15.03;50.55;99809.53;6158324;23;20093;-92
2023/06/21 23:11:24;;;;;;;32.53;8.93;;;;;;;15.17;50.58;99834.09;6158015;23;20021;-89
2023/06/21 23:13:54;;;;;;;32.05;9.77;;;;;;;15.15;50.50;99841.06;6131058;23;20113;-87
2023/06/21 23:16:21;;;;;;;23.85;9.35;;;;;;;14.94;51.03;99808.75;6160328;23;20021;-89
2023/06/21 23:19:07;;;;;;;31.23;9.00;;;;;;;14.92;51.09;99813.78;6072363;23;20019;-89
2023/06/21 23:21:34;;;;;;;25.67;9.18;;;;;;;15.07;51.67;99844.66;6070799;23;20102;-93
2023/06/21 23:24:04;;;;;;;31.88;10.10;;;;;;;14.88;51.68;99820.28;6046831;23;20022;-93
2023/06/21 23:26:36;;;;;;;32.90;10.07;;;;;;;14.75;52.25;99803.63;6023421;23;20079;-89
2023/06/21 23:29:03;;;;;;;32.08;9.60;;;;;;;14.74;52.12;99806.72;6069339;23;20026;-90
2023/06/21 23:31:33;;;;;;;27.50;9.60;;;;;;;14.67;52.37;99800.91;6068920;23;20022;-88
2023/06/21 23:34:00;;;;;;;31.10;9.85;;;;;;;14.78;52.67;99825.00;6072054;23;20326;-87
2023/06/21 23:36:50;;;;;;;36.40;10.02;;;;;;;14.62;52.84;99812.91;6027371;23;20259;-90
2023/06/21 23:39:16;;;;;;;33.55;10.18;;;;;;;14.62;53.35;99823.91;6072419;23;20025;-90
2023/06/21 23:41:45;;;;;;;31.65;11.00;;;;;;;14.70;53.24;99842.34;6023346;23;20058;-91
2023/06/21 23:44:16;;;;;;;46.05;11.30;;;;;;;14.66;53.52;99835.88;6047224;23;20097;-89
2023/06/21 23:46:45;;;;;;;31.02;10.32;;;;;;;14.42;53.75;99808.06;6071602;23;20026;-89
2023/06/21 23:49:11;;;;;;;42.17;11.05;;;;;;;14.27;54.15;99781.88;6072378;23;20484;-90
2023/06/21 23:51:44;;;;;;;42.45;10.18;;;;;;;14.27;54.57;99792.88;6071550;23;20018;-95
2023/06/21 23:54:10;;;;;;;32.92;11.32;;;;;;;14.36;54.92;99823.13;6047499;23;20468;-90
2023/06/21 23:56:36;;;;;;;36.70;11.73;;;;;;;14.55;54.60;99851.91;6145079;23;20016;-90
2023/06/21 23:59:02;;;;;;;35.95;11.63;;;;;;;14.44;54.61;99831.38;6164061;23;20431;-88
